Time;durP1;ratioP1;P1;durP2;ratioP2;P2;SDS_P1;SDS_P2;PMS_P1;PMS_P2;Temp;Humidity;BMP_temperature;BMP_pressure;BME280_temperature;BME280_humidity;BME280_pressure;Samples;Min_cycle;Max_cycle;Signal;HPM_P1;HPM_P2
2023/11/03 01:16:49;;;;;;;2.63;1.60;;;18.30;55.50;;;;;;6218616;23;20142;-87
2023/11/03 01:19:24;;;;;;;2.65;1.67;;;18.30;55.60;;;;;;6114278;23;20162;-87
2023/11/03 01:22:19;;;;;;;3.78;1.55;;;18.30;55.60;;;;;;6112024;23;20672;-85
2023/11/03 01:24:57;;;;;;;;;;;;;;;;;;;;;
2023/11/03 01:27:55;;;;;;;2.00;1.60;;;18.40;55.60;;;;;;5989881;23;20294;-87
2023/11/03 01:30:28;;;;;;;2.10;1.63;;;18.30;55.60;;;;;;5991013;23;20154;-87
2023/11/03 01:33:50;;;;;;;2.05;1.67;;;18.30;55.70;;;;;;5987527;23;20158;-86
2023/11/03 01:36:04;;;;;;;2.10;1.40;;;18.30;55.60;;;;;;5994209;23;20159;-86
2023/11/03 01:38:45;;;;;;;2.63;1.80;;;18.30;55.60;;;;;;6009963;23;20139;-88
2023/11/03 01:41:17;;;;;;;2.28;1.63;;;18.40;55.70;;;;;;6004782;23;20257;-86
2023/11/03 01:44:09;;;;;;;1.60;1.50;;;18.30;55.60;;;;;;5983202;24;20188;-88
2023/11/03 01:46:47;;;;;;;2.20;1.67;;;18.30;55.70;;;;;;5982656;24;20183;-88
2023/11/03 01:49:32;;;;;;;1.77;1.55;;;18.30;55.70;;;;;;6036279;23;20608;-86
2023/11/03 02:12:42;;;;;;;2.72;1.52;;;18.20;55.80;;;;;;5938202;24;20196;-85
2023/11/03 02:15:16;;;;;;;1.98;1.77;;;18.30;55.80;;;;;;5926085;24;20260;-88
2023/11/03 03:09:23;;;;;;;;;;;;;;;;;;;;;
2023/11/03 03:12:09;;;;;;;2.42;2.00;;;18.20;56.10;;;;;;5986673;23;20268;-87
2023/11/03 03:14:47;;;;;;;2.78;1.85;;;18.10;56.10;;;;;;5930860;24;20612;-89
2023/11/03 04:26:43;;;;;;;2.28;1.98;;;18.10;56.70;;;;;;6202207;23;20207;-88
2023/11/03 04:29:11;;;;;;;2.25;2.00;;;18.00;56.70;;;;;;6159472;23;20147;-87
2023/11/03 04:31:38;;;;;;;2.40;2.20;;;18.10;56.70;;;;;;6160655;23;20210;-87
2023/11/03 04:34:04;;;;;;;2.20;2.00;;;18.10;56.70;;;;;;6110732;23;20138;-88
2023/11/03 04:36:35;;;;;;;3.92;2.50;;;18.00;56.80;;;;;;6111069;23;20151;-87
2023/11/03 04:39:06;;;;;;;2.40;1.98;;;18.00;56.80;;;;;;6135372;23;20127;-89
2023/11/03 04:41:35;;;;;;;2.15;1.92;;;18.10;56.80;;;;;;6087050;23;20224;-88
2023/11/03 04:44:03;;;;;;;3.08;2.50;;;18.10;56.80;;;;;;6134899;23;20143;-88
2023/11/03 04:47:01;;;;;;;2.40;2.20;;;18.00;56.70;;;;;;6111414;23;20170;-87
2023/11/03 04:49:57;;;;;;;2.60;2.40;;;18.00;56.90;;;;;;5990495;23;20162;-87
2023/11/03 04:52:29;;;;;;;3.63;2.45;;;18.00;56.90;;;;;;5977955;23;20287;-88
2023/11/03 04:54:58;;;;;;;4.15;2.30;;;18.00;56.80;;;;;;5951172;24;20220;-88
2023/11/03 04:57:41;;;;;;;3.55;2.30;;;18.00;56.90;;;;;;5952698;24;20176;-88
2023/11/03 05:00:16;;;;;;;2.83;2.35;;;18.00;56.90;;;;;;5879862;24;20168;-87
2023/11/03 05:02:45;;;;;;;3.35;2.30;;;18.00;56.80;;;;;;5817074;24;20628;-88
2023/11/03 05:05:36;;;;;;;2.72;2.53;;;18.00;56.80;;;;;;5773938;24;20160;-87
2023/11/03 05:08:07;;;;;;;3.35;2.55;;;18.10;56.90;;;;;;5774879;24;20241;-88
2023/11/03 05:10:52;;;;;;;2.63;2.40;;;18.10;56.70;;;;;;5796066;24;20593;-87
2023/11/03 05:13:28;;;;;;;2.88;2.40;;;18.10;56.70;;;;;;5764904;24;20165;-88
2023/11/03 05:16:11;;;;;;;3.13;2.22;;;18.10;56.90;;;;;;5743294;24;20167;-87
2023/11/03 05:18:44;;;;;;;2.78;2.42;;;18.00;56.90;;;;;;5724787;24;20215;-88
2023/11/03 05:21:13;;;;;;;2.33;2.13;;;18.00;56.90;;;;;;5743160;24;20280;-88
2023/11/03 05:23:49;;;;;;;3.70;2.75;;;18.00;57.10;;;;;;5721916;24;20739;-89
2023/11/03 05:26:24;;;;;;;2.55;2.33;;;17.90;57.10;;;;;;5780714;24;20179;-89
2023/11/03 05:28:58;;;;;;;2.78;2.28;;;17.90;57.10;;;;;;5830882;24;20205;-88
2023/11/03 05:31:37;;;;;;;3.13;2.67;;;18.00;57.10;;;;;;5801233;24;20162;-89
2023/11/03 05:34:25;;;;;;;2.80;2.38;;;18.00;57.10;;;;;;5775457;24;20170;-89
2023/11/03 05:37:07;;;;;;;3.20;2.60;;;18.00;57.20;;;;;;5829182;24;20170;-89
2023/11/03 05:40:05;;;;;;;2.63;2.28;;;18.00;57.10;;;;;;5798517;24;20672;-88
2023/11/03 05:42:54;;;;;;;2.67;2.35;;;18.00;57.20;;;;;;5760504;24;20200;-89
2023/11/03 05:48:48;;;;;;;2.65;2.28;;;18.00;57.30;;;;;;5711011;25;20229;-89
2023/11/03 05:51:45;;;;;;;3.38;2.58;;;18.00;57.30;;;;;;5762968;24;20176;-89
2023/11/03 05:54:48;;;;;;;3.22;2.47;;;18.00;57.10;;;;;;5723236;24;20157;-89
2023/11/03 05:57:31;;;;;;;3.42;2.47;;;18.00;57.20;;;;;;5801645;24;20163;-88
2023/11/03 06:00:08;;;;;;;3.28;2.65;;;18.00;57.40;;;;;;5858516;24;20165;-87
2023/11/03 06:03:15;;;;;;;3.35;2.83;;;17.90;57.40;;;;;;5869343;24;20190;-88
2023/11/03 06:06:06;;;;;;;;;;;;;;;;;;;;;
2023/11/03 06:08:44;;;;;;;3.42;2.55;;;18.00;57.50;;;;;;5790263;24;20256;-88
2023/11/03 06:18:24;;;;;;;3.85;2.85;;;17.90;57.60;;;;;;5697654;25;20172;-89
2023/11/03 06:20:59;;;;;;;3.20;2.90;;;18.00;57.40;;;;;;5636520;25;20172;-88
2023/11/03 06:37:54;;;;;;;3.60;2.72;;;17.90;57.60;;;;;;5837616;24;20281;-88
2023/11/03 06:40:25;;;;;;;3.55;2.50;;;17.90;57.70;;;;;;5762128;24;20177;-87
2023/11/03 06:43:14;;;;;;;3.03;2.55;;;17.90;57.60;;;;;;5800994;24;20300;-88
2023/11/03 06:45:59;;;;;;;3.17;2.85;;;17.90;57.60;;;;;;5777153;24;20167;-88
2023/11/03 06:48:50;;;;;;;;;;;;;;;;;;;;;
2023/11/03 06:52:00;;;;;;;3.72;2.55;;;18.10;57.30;;;;;;5790277;24;20275;-89
2023/11/03 06:54:42;;;;;;;2.70;2.25;;;18.00;57.30;;;;;;5885798;24;20169;-89
2023/11/03 07:00:03;;;;;;;2.95;2.63;;;18.10;57.10;;;;;;5769257;24;20210;-89
2023/11/03 07:02:38;;;;;;;3.25;2.65;;;18.20;57.00;;;;;;5737149;25;20607;-87
2023/11/03 07:05:12;;;;;;;3.95;2.58;;;18.20;56.90;;;;;;5739492;24;20160;-87
2023/11/03 07:07:39;;;;;;;2.55;2.28;;;18.20;56.80;;;;;;5716351;25;20603;-88
2023/11/03 07:10:30;;;;;;;4.53;2.72;;;18.30;56.90;;;;;;5706495;25;20658;-87
2023/11/03 07:13:15;;;;;;;3.38;2.53;;;18.20;56.70;;;;;;5691089;25;20536;-87
2023/11/03 07:16:16;;;;;;;3.25;2.70;;;18.30;56.80;;;;;;5654021;25;20520;-87
2023/11/03 07:18:46;;;;;;;2.83;2.40;;;18.30;56.50;;;;;;5677461;25;20164;-87
2023/11/03 07:21:25;;;;;;;2.83;2.53;;;18.30;56.40;;;;;;5662252;25;20674;-88
2023/11/03 07:24:13;;;;;;;2.70;2.50;;;18.30;56.40;;;;;;5635241;25;20186;-88
2023/11/03 07:27:04;;;;;;;2.53;2.33;;;18.50;56.40;;;;;;5659463;25;20167;-88
2023/11/03 07:29:41;;;;;;;;;;;;;;;;;;;;;
2023/11/03 07:32:12;;;;;;;2.92;2.38;;;18.50;56.20;;;;;;5731457;25;20244;-87
2023/11/03 07:34:49;;;;;;;3.10;2.80;;;18.50;56.00;;;;;;5709886;24;20165;-87
2023/11/03 07:37:25;;;;;;;3.80;2.53;;;18.50;56.30;;;;;;5780135;24;20163;-87
2023/11/03 07:40:02;;;;;;;3.05;2.75;;;18.50;56.10;;;;;;5865738;24;20304;-87
2023/11/03 07:42:38;;;;;;;3.35;2.90;;;18.50;56.10;;;;;;5868770;24;20268;-88
2023/11/03 07:45:11;;;;;;;3.13;2.83;;;18.50;56.00;;;;;;5815688;24;20155;-88
2023/11/03 07:47:42;;;;;;;4.40;2.58;;;18.60;56.00;;;;;;5771759;24;20261;-88
2023/11/03 07:50:16;;;;;;;3.00;2.70;;;18.60;56.00;;;;;;5788054;24;20165;-87
2023/11/03 07:52:46;;;;;;;3.20;2.63;;;18.60;55.90;;;;;;5742861;24;20633;-88
2023/11/03 07:55:25;;;;;;;3.75;3.03;;;18.60;55.90;;;;;;5800483;24;20163;-88
2023/11/03 07:58:08;;;;;;;3.53;2.88;;;18.60;56.20;;;;;;5795366;24;20167;-88
2023/11/03 08:00:40;;;;;;;3.63;2.97;;;18.50;56.10;;;;;;5791507;24;20708;-87
2023/11/03 08:03:13;;;;;;;3.20;2.80;;;18.60;56.10;;;;;;5805547;24;20195;-87
2023/11/03 08:05:39;;;;;;;3.40;2.90;;;18.60;56.10;;;;;;5817526;24;20201;-88
2023/11/03 08:08:13;;;;;;;4.45;2.95;;;18.60;56.10;;;;;;5818187;24;20205;-88
2023/11/03 08:11:02;;;;;;;3.30;2.78;;;18.60;56.00;;;;;;5817875;24;20159;-87
2023/11/03 08:13:34;;;;;;;3.33;2.80;;;18.60;56.00;;;;;;5819220;24;20440;-88
2023/11/03 08:16:06;;;;;;;3.30;2.95;;;18.60;56.10;;;;;;5835440;24;20173;-87
2023/11/03 08:18:37;;;;;;;3.65;2.60;;;18.60;56.10;;;;;;5884502;24;20235;-87
2023/11/03 08:21:07;;;;;;;3.60;2.80;;;18.60;56.10;;;;;;5877365;24;20160;-87
2023/11/03 08:23:37;;;;;;;4.07;3.00;;;18.50;56.10;;;;;;5946932;24;20620;-88
2023/11/03 08:26:05;;;;;;;3.13;2.60;;;18.60;56.20;;;;;;5978789;23;20295;-88
2023/11/03 08:28:46;;;;;;;3.63;2.83;;;18.60;56.20;;;;;;5949923;24;20155;-89
2023/11/03 08:31:13;;;;;;;4.82;3.08;;;18.60;56.20;;;;;;5970177;23;20603;-88
2023/11/03 08:33:39;;;;;;;4.85;3.03;;;18.60;56.20;;;;;;6011835;23;20151;-88
2023/11/03 08:36:26;;;;;;;3.38;3.08;;;18.70;56.20;;;;;;6028043;23;20164;-88
2023/11/03 08:38:54;;;;;;;3.15;2.65;;;18.60;56.30;;;;;;6018160;23;20261;-87
2023/11/03 08:41:26;;;;;;;3.17;2.80;;;18.60;56.30;;;;;;6020071;23;20742;-89
2023/11/03 09:00:56;;;;;;;3.30;2.78;;;18.60;56.50;;;;;;5990318;23;20166;-88
2023/11/03 09:03:41;;;;;;;;;;;;;;;;;;;;;
2023/11/03 09:06:13;;;;;;;4.18;2.90;;;18.60;56.60;;;;;;6054880;23;20228;-87
2023/11/03 09:08:48;;;;;;;3.70;2.92;;;18.60;56.60;;;;;;6038240;23;20150;-88
2023/11/03 09:11:19;;;;;;;3.67;2.70;;;18.60;56.40;;;;;;6037451;23;20185;-89
2023/11/03 09:14:00;;;;;;;3.20;2.90;;;18.60;56.60;;;;;;6004606;23;20155;-88
2023/11/03 09:16:34;;;;;;;3.22;2.92;;;18.50;56.60;;;;;;5981794;24;20142;-88
2023/11/03 09:19:01;;;;;;;3.83;2.90;;;18.70;56.70;;;;;;5980408;24;20184;-88
2023/11/03 09:21:30;;;;;;;3.30;3.00;;;18.60;56.60;;;;;;5996532;23;20611;-86
2023/11/03 09:23:56;;;;;;;3.88;3.28;;;18.60;56.70;;;;;;6033977;23;20162;-86
2023/11/03 09:26:22;;;;;;;5.13;2.97;;;18.60;56.70;;;;;;6005580;23;20155;-88
2023/11/03 09:28:57;;;;;;;3.58;3.05;;;18.60;56.60;;;;;;6028966;23;20159;-88
2023/11/03 09:31:28;;;;;;;3.88;2.70;;;18.60;56.60;;;;;;6027166;23;20191;-88
2023/11/03 09:33:55;;;;;;;3.20;2.65;;;18.70;56.60;;;;;;6039718;23;20647;-88
2023/11/03 09:37:25;;;;;;;3.78;3.13;;;18.70;56.50;;;;;;5991320;23;20264;-88
2023/11/03 09:40:28;;;;;;;3.17;2.88;;;18.70;56.50;;;;;;5989235;23;20209;-88
2023/11/03 09:43:08;;;;;;;3.00;2.70;;;18.70;56.40;;;;;;5981584;24;20195;-89
2023/11/03 09:46:09;;;;;;;2.90;2.60;;;18.70;56.40;;;;;;5930161;24;20201;-88
2023/11/03 09:49:03;;;;;;;3.20;2.90;;;18.70;56.60;;;;;;5924428;24;20157;-88
2023/11/03 09:52:23;;;;;;;4.68;3.00;;;18.70;56.60;;;;;;5890165;24;20164;-88
2023/11/03 09:54:51;;;;;;;2.90;2.65;;;18.70;56.60;;;;;;5790195;24;20168;-88
2023/11/03 09:57:21;;;;;;;3.40;3.03;;;18.70;56.60;;;;;;5805516;24;20179;-89
2023/11/03 09:59:56;;;;;;;3.72;3.10;;;18.70;56.60;;;;;;5747724;24;20196;-88
2023/11/03 10:02:25;;;;;;;4.07;3.22;;;18.70;56.60;;;;;;5817008;24;20201;-88
2023/11/03 10:05:07;;;;;;;3.50;3.00;;;18.70;56.60;;;;;;5817257;24;20163;-88
2023/11/03 10:07:55;;;;;;;3.58;3.13;;;18.70;56.60;;;;;;5756628;24;20696;-87
2023/11/03 10:10:29;;;;;;;3.00;2.70;;;18.70;56.60;;;;;;5767479;24;20244;-89
2023/11/03 10:13:10;;;;;;;3.42;3.13;;;18.70;56.60;;;;;;5770793;24;20229;-88
2023/11/03 10:15:40;;;;;;;3.22;2.92;;;18.70;56.60;;;;;;5838225;24;20207;-88
2023/11/03 10:18:07;;;;;;;3.35;3.05;;;18.70;56.60;;;;;;5815350;24;20310;-88
2023/11/03 10:20:33;;;;;;;4.47;3.00;;;18.70;56.60;;;;;;5792491;24;20176;-88
2023/11/03 10:23:13;;;;;;;4.07;2.90;;;18.80;56.60;;;;;;5841504;24;20189;-89
2023/11/03 10:25:52;;;;;;;3.05;2.75;;;18.80;56.70;;;;;;5825060;24;20205;-88
2023/11/03 10:28:26;;;;;;;3.40;3.10;;;18.70;56.60;;;;;;5793455;24;20222;-89
2023/11/03 10:31:06;;;;;;;3.00;2.70;;;18.70;56.70;;;;;;5761136;24;20669;-88
2023/11/03 10:34:04;;;;;;;2.95;2.65;;;18.70;56.70;;;;;;5866111;24;20177;-89
2023/11/03 10:36:46;;;;;;;3.67;3.13;;;18.70;56.60;;;;;;5882663;24;20949;-89
2023/11/03 10:39:39;;;;;;;3.35;2.95;;;18.70;56.60;;;;;;5906463;24;20602;-88
2023/11/03 10:42:24;;;;;;;3.30;2.90;;;18.80;56.70;;;;;;5937287;24;20183;-88
2023/11/03 10:45:02;;;;;;;3.53;3.00;;;18.90;56.70;;;;;;5932766;24;20163;-88
2023/11/03 10:47:35;;;;;;;3.30;3.00;;;18.70;56.60;;;;;;5933645;24;20151;-88
2023/11/03 10:50:06;;;;;;;3.20;2.67;;;18.80;56.70;;;;;;6000897;23;20159;-88
2023/11/03 11:03:21;;;;;;;3.22;2.92;;;18.80;56.60;;;;;;5904323;22;7407128;-87
2023/11/03 11:05:59;;;;;;;3.30;3.00;;;18.80;56.70;;;;;;6197659;23;20153;-87
2023/11/03 11:08:29;;;;;;;3.40;2.78;;;18.90;56.70;;;;;;6199671;23;20133;-87
2023/11/03 11:10:56;;;;;;;3.10;2.80;;;18.90;56.70;;;;;;6111810;23;20522;-88
2023/11/03 11:13:25;;;;;;;3.63;2.85;;;18.90;56.70;;;;;;6136234;23;20225;-88
2023/11/03 11:16:08;;;;;;;3.45;2.90;;;18.80;56.70;;;;;;6135510;23;20486;-88
2023/11/03 11:18:42;;;;;;;3.30;3.00;;;18.90;56.80;;;;;;6110045;23;20161;-87
2023/11/03 11:21:14;;;;;;;3.25;2.95;;;18.90;56.80;;;;;;6111789;23;20181;-88
2023/11/03 11:23:50;;;;;;;3.60;2.92;;;18.90;56.70;;;;;;6050245;23;20161;-88
2023/11/03 11:26:29;;;;;;;3.33;3.03;;;18.90;56.70;;;;;;6025431;23;20156;-88
2023/11/03 11:28:59;;;;;;;3.45;3.00;;;18.80;56.70;;;;;;6025277;23;20188;-88
2023/11/03 11:31:37;;;;;;;3.38;3.03;;;18.80;56.70;;;;;;6048762;23;20684;-88
2023/11/03 11:34:30;;;;;;;3.95;3.00;;;18.80;56.70;;;;;;6024705;23;20236;-88
2023/11/03 11:37:20;;;;;;;3.30;3.00;;;18.90;56.90;;;;;;6031833;23;20247;-88
2023/11/03 11:39:45;;;;;;;4.45;3.10;;;18.80;56.90;;;;;;6054464;23;20182;-88
2023/11/03 11:42:25;;;;;;;3.25;2.95;;;18.90;56.90;;;;;;6098177;23;20164;-88
2023/11/03 11:44:59;;;;;;;3.25;2.95;;;18.90;56.90;;;;;;6061630;23;20618;-88
2023/11/03 11:47:29;;;;;;;3.70;3.20;;;18.90;56.90;;;;;;6075507;23;20161;-88
2023/11/03 11:50:28;;;;;;;3.35;3.05;;;18.90;56.80;;;;;;6058540;23;20590;-89
2023/11/03 11:53:15;;;;;;;4.13;3.03;;;18.90;56.90;;;;;;6077462;23;20172;-89
2023/11/03 11:56:11;;;;;;;4.13;2.90;;;18.90;56.80;;;;;;6189675;23;20146;-89
2023/11/03 11:58:44;;;;;;;4.53;2.95;;;18.90;56.90;;;;;;6084319;23;20251;-89
2023/11/03 12:01:10;;;;;;;4.38;3.20;;;18.90;56.90;;;;;;6100311;23;20149;-89
2023/11/03 12:04:03;;;;;;;3.42;3.13;;;18.90;57.00;;;;;;6069444;23;20288;-88
2023/11/03 12:06:33;;;;;;;3.30;3.00;;;18.90;57.00;;;;;;6071093;23;20212;-88
2023/11/03 12:09:04;;;;;;;3.92;3.10;;;18.90;57.00;;;;;;6070684;23;20156;-89
2023/11/03 12:11:38;;;;;;;4.45;3.55;;;18.90;56.90;;;;;;6093760;23;20225;-87
2023/11/03 12:14:07;;;;;;;3.85;3.03;;;18.90;57.00;;;;;;6072647;23;20157;-87
2023/11/03 12:16:42;;;;;;;3.60;3.20;;;18.90;57.00;;;;;;6006902;23;20159;-87
2023/11/03 12:19:11;;;;;;;4.63;3.08;;;18.90;57.00;;;;;;6026502;23;20157;-88
2023/11/03 12:21:41;;;;;;;5.22;3.38;;;18.90;57.00;;;;;;5993888;23;20170;-87
2023/11/03 12:24:07;;;;;;;4.03;2.85;;;18.90;57.00;;;;;;5992636;23;20161;-88
2023/11/03 12:26:37;;;;;;;3.63;3.03;;;18.90;57.10;;;;;;6016500;23;20165;-88
2023/11/03 12:29:30;;;;;;;4.45;3.10;;;18.90;57.10;;;;;;5994304;23;20158;-87
2023/11/03 12:32:01;;;;;;;6.10;2.90;;;18.90;57.20;;;;;;6017112;23;20194;-88
2023/11/03 12:34:27;;;;;;;3.97;2.97;;;18.90;57.20;;;;;;5993292;23;20164;-87
2023/11/03 12:37:05;;;;;;;3.33;3.03;;;18.90;57.20;;;;;;5997639;23;20173;-88
2023/11/03 12:39:48;;;;;;;3.60;3.13;;;19.00;57.30;;;;;;5987256;23;20188;-87
2023/11/03 12:42:23;;;;;;;5.65;3.00;;;18.90;57.20;;;;;;5961446;23;20169;-87
2023/11/03 12:45:04;;;;;;;5.10;3.03;;;19.00;57.30;;;;;;5961158;23;20710;-86
2023/11/03 12:47:49;;;;;;;4.97;3.03;;;18.90;57.30;;;;;;6013220;23;20221;-88
2023/11/03 12:50:22;;;;;;;3.30;3.00;;;18.90;57.30;;;;;;6064351;23;20170;-88
2023/11/03 12:52:51;;;;;;;4.30;3.17;;;18.90;57.30;;;;;;6101598;23;20144;-86
2023/11/03 12:55:21;;;;;;;3.22;2.75;;;18.90;57.30;;;;;;6100177;23;20148;-88
2023/11/03 12:57:49;;;;;;;3.00;2.70;;;18.90;57.20;;;;;;6101204;23;20174;-87
2023/11/03 13:00:15;;;;;;;3.83;3.00;;;18.90;57.30;;;;;;6077970;23;20156;-87
2023/11/03 13:02:42;;;;;;;4.53;3.33;;;18.90;58.00;;;;;;6042800;23;20160;-87
2023/11/03 13:05:09;;;;;;;3.45;3.15;;;18.90;57.30;;;;;;6042930;23;20153;-87
2023/11/03 13:07:44;;;;;;;3.45;3.15;;;18.90;57.40;;;;;;6066852;23;20180;-86
2023/11/03 13:10:34;;;;;;;3.20;2.90;;;18.90;57.50;;;;;;5997286;23;20684;-87
2023/11/03 13:13:10;;;;;;;3.85;2.88;;;18.90;57.50;;;;;;6009462;23;20216;-88
2023/11/03 13:15:36;;;;;;;3.80;3.10;;;18.90;57.50;;;;;;6038664;23;20153;-87
2023/11/03 13:18:04;;;;;;;3.08;2.78;;;18.90;57.50;;;;;;6072669;23;20290;-87
2023/11/03 13:20:33;;;;;;;3.33;2.83;;;18.90;57.60;;;;;;6073262;23;20496;-88
2023/11/03 13:23:04;;;;;;;3.67;3.00;;;18.90;57.50;;;;;;6074455;23;20664;-87
2023/11/03 13:25:32;;;;;;;3.10;2.80;;;18.90;57.50;;;;;;6045376;23;20153;-87
2023/11/03 13:27:59;;;;;;;4.20;2.80;;;18.90;57.60;;;;;;6020426;23;20153;-87
2023/11/03 13:30:25;;;;;;;3.28;2.80;;;18.90;57.50;;;;;;6043648;23;20177;-88
2023/11/03 13:33:57;;;;;;;3.75;2.90;;;18.90;57.50;;;;;;6025049;23;20612;-88
2023/11/03 13:36:13;;;;;;;3.28;2.92;;;18.90;57.50;;;;;;6020886;23;20297;-87
2023/11/03 13:38:41;;;;;;;4.18;2.80;;;18.90;57.50;;;;;;6039675;23;20290;-87
2023/11/03 13:41:14;;;;;;;3.10;2.80;;;18.90;57.60;;;;;;6038965;23;20162;-88
2023/11/03 13:43:48;;;;;;;3.17;2.80;;;18.90;57.60;;;;;;6038944;23;20227;-88
2023/11/03 13:46:20;;;;;;;3.30;2.70;;;19.00;57.60;;;;;;6037773;23;20212;-88
2023/11/03 13:48:49;;;;;;;3.50;2.75;;;19.00;57.70;;;;;;6095504;23;20156;-86
2023/11/03 13:51:24;;;;;;;3.42;2.92;;;19.00;57.80;;;;;;6069562;23;20694;-87
2023/11/03 13:53:53;;;;;;;3.10;2.60;;;19.00;57.80;;;;;;6070330;23;20231;-87
2023/11/03 13:56:21;;;;;;;2.80;2.58;;;18.90;57.70;;;;;;6107195;23;20175;-87
2023/11/03 13:58:48;;;;;;;3.03;2.50;;;19.00;57.90;;;;;;6099833;23;20170;-88
2023/11/03 14:01:16;;;;;;;3.40;2.72;;;19.00;57.80;;;;;;6100122;23;20611;-87
2023/11/03 14:03:42;;;;;;;5.78;2.70;;;19.00;57.80;;;;;;6013162;23;20297;-88
2023/11/03 14:06:10;;;;;;;3.25;2.95;;;19.00;57.90;;;;;;5991501;23;20555;-88
2023/11/03 14:08:38;;;;;;;3.00;2.53;;;18.90;57.80;;;;;;5993756;23;20176;-88
2023/11/03 14:11:13;;;;;;;4.90;2.65;;;19.00;57.80;;;;;;6016370;23;20178;-88
2023/11/03 14:13:54;;;;;;;3.22;2.63;;;18.90;57.90;;;;;;5994506;23;20153;-87
2023/11/03 14:16:23;;;;;;;3.13;2.53;;;19.00;57.90;;;;;;5959988;24;20168;-87
2023/11/03 14:18:52;;;;;;;2.95;2.45;;;19.00;57.90;;;;;;5938239;24;20212;-87
2023/11/03 14:21:26;;;;;;;2.95;2.65;;;19.00;57.90;;;;;;5908179;24;20160;-88
2023/11/03 14:23:53;;;;;;;2.63;2.42;;;19.00;58.00;;;;;;5885989;24;20162;-87
2023/11/03 14:26:25;;;;;;;3.10;2.80;;;19.00;58.20;;;;;;5884499;24;20157;-88
2023/11/03 14:28:53;;;;;;;3.75;2.67;;;19.00;58.00;;;;;;5908006;24;20164;-86
2023/11/03 14:31:24;;;;;;;2.75;2.55;;;19.00;58.00;;;;;;5914227;24;20192;-87
2023/11/03 14:33:51;;;;;;;2.70;2.45;;;19.00;58.00;;;;;;5966765;23;20245;-87
2023/11/03 14:36:17;;;;;;;3.00;2.50;;;19.00;58.00;;;;;;5989988;23;20203;-87
2023/11/03 14:38:46;;;;;;;3.13;2.63;;;19.00;58.00;;;;;;5967410;23;20147;-86
2023/11/03 14:41:16;;;;;;;3.05;2.50;;;19.10;58.10;;;;;;5967259;23;20185;-85
2023/11/03 14:43:42;;;;;;;2.70;2.35;;;19.00;58.70;;;;;;5973589;23;20182;-86
2023/11/03 14:46:08;;;;;;;2.80;2.33;;;19.00;58.00;;;;;;5979662;23;20179;-86
2023/11/03 14:48:43;;;;;;;2.40;2.20;;;19.00;58.10;;;;;;6058425;23;20152;-86
2023/11/03 14:51:10;;;;;;;2.72;2.40;;;19.10;58.10;;;;;;6013706;23;20188;-86
2023/11/03 14:53:36;;;;;;;4.45;2.40;;;19.10;58.10;;;;;;6024881;23;20225;-86
2023/11/03 14:56:02;;;;;;;2.55;2.20;;;19.10;58.10;;;;;;6049857;23;20169;-85
2023/11/03 14:58:31;;;;;;;2.83;2.63;;;19.10;58.00;;;;;;6033496;23;20223;-86
2023/11/03 15:00:57;;;;;;;2.72;2.13;;;19.10;58.10;;;;;;6032213;23;20180;-85
2023/11/03 15:03:25;;;;;;;3.03;2.40;;;19.10;58.00;;;;;;6071718;23;20202;-86
2023/11/03 15:05:59;;;;;;;2.80;2.50;;;19.10;58.00;;;;;;6115827;23;20131;-87
2023/11/03 15:08:31;;;;;;;3.33;2.33;;;19.10;58.20;;;;;;6114613;23;20147;-87
2023/11/03 15:10:58;;;;;;;2.55;2.15;;;19.10;58.20;;;;;;6116995;23;20569;-87
2023/11/03 15:13:25;;;;;;;3.00;2.20;;;19.10;58.20;;;;;;6111662;23;20159;-85
2023/11/03 15:15:55;;;;;;;3.50;2.47;;;19.10;58.30;;;;;;6113460;23;20151;-86
2023/11/03 15:18:23;;;;;;;3.00;2.40;;;19.10;58.20;;;;;;6118984;23;20261;-86
2023/11/03 15:20:50;;;;;;;3.67;2.80;;;19.10;58.20;;;;;;6083744;23;20161;-87
2023/11/03 15:23:16;;;;;;;2.50;2.30;;;19.10;58.20;;;;;;6077887;23;20137;-86
2023/11/03 15:25:47;;;;;;;5.15;2.63;;;19.10;58.20;;;;;;6135956;23;20270;-87
2023/11/03 15:28:17;;;;;;;6.25;2.67;;;19.10;58.30;;;;;;6115460;23;20162;-85
2023/11/03 15:30:48;;;;;;;2.35;2.15;;;19.10;58.30;;;;;;6138475;23;20167;-86
2023/11/03 15:33:14;;;;;;;2.95;2.63;;;19.10;58.40;;;;;;6102654;23;20155;-88
2023/11/03 15:35:42;;;;;;;2.58;2.30;;;19.10;59.10;;;;;;6079777;23;20168;-87
2023/11/03 15:38:09;;;;;;;3.03;2.47;;;19.10;58.50;;;;;;6031878;23;20156;-87
2023/11/03 15:40:46;;;;;;;2.60;2.40;;;19.10;58.50;;;;;;6033495;23;20235;-87
2023/11/03 15:43:16;;;;;;;2.75;2.28;;;19.10;58.50;;;;;;6032358;23;20987;-86
2023/11/03 15:45:49;;;;;;;2.60;2.10;;;19.20;58.50;;;;;;6031867;23;20588;-87
2023/11/03 15:48:17;;;;;;;3.13;2.38;;;19.20;58.40;;;;;;6057064;23;20188;-88
2023/11/03 15:50:49;;;;;;;3.13;2.53;;;19.20;58.40;;;;;;6057016;23;20572;-86
2023/11/03 15:53:17;;;;;;;2.72;2.30;;;19.20;58.30;;;;;;6035270;23;20148;-90
2023/11/03 15:55:50;;;;;;;2.10;1.90;;;19.20;58.50;;;;;;6058795;23;20168;-88
2023/11/03 15:58:17;;;;;;;4.03;2.30;;;19.20;58.50;;;;;;6057139;23;20160;-89
2023/11/03 16:00:46;;;;;;;3.08;2.40;;;19.20;58.50;;;;;;6032628;23;20182;-88
2023/11/03 16:03:16;;;;;;;2.45;2.20;;;19.20;58.50;;;;;;6062894;23;20633;-87
2023/11/03 16:05:48;;;;;;;2.80;2.30;;;19.20;58.60;;;;;;6111346;23;20465;-89
2023/11/03 16:08:23;;;;;;;2.83;2.22;;;19.20;58.60;;;;;;6110080;23;20158;-89
2023/11/03 16:10:56;;;;;;;2.72;2.53;;;19.30;59.30;;;;;;6085197;23;20202;-89
2023/11/03 16:13:22;;;;;;;2.70;1.90;;;19.20;58.70;;;;;;6084344;23;20484;-88
2023/11/03 16:15:49;;;;;;;2.83;2.30;;;19.20;58.80;;;;;;6107634;23;20139;-86
2023/11/03 16:18:21;;;;;;;2.83;2.30;;;19.20;58.80;;;;;;6199691;23;20150;-87
2023/11/03 16:20:48;;;;;;;2.50;2.30;;;19.20;58.90;;;;;;6144135;23;20158;-86
2023/11/03 16:23:13;;;;;;;2.60;2.40;;;19.10;58.90;;;;;;6169408;23;20145;-86
2023/11/03 16:25:51;;;;;;;2.50;2.30;;;19.10;59.00;;;;;;6168529;23;20221;-87
2023/11/03 16:28:32;;;;;;;2.45;2.25;;;19.20;59.20;;;;;;6143674;23;20172;-87
2023/11/03 16:31:26;;;;;;;4.57;2.42;;;19.10;59.20;;;;;;6167781;23;20523;-88
2023/11/03 16:33:52;;;;;;;3.20;2.28;;;19.00;59.20;;;;;;6217995;23;20288;-87
2023/11/03 16:36:25;;;;;;;3.08;2.25;;;19.10;59.20;;;;;;6218898;23;20138;-88
2023/11/03 16:38:56;;;;;;;2.40;2.20;;;19.10;59.20;;;;;;6167947;23;20142;-88
2023/11/03 16:41:25;;;;;;;2.83;2.50;;;19.10;59.20;;;;;;6144070;23;20489;-87
2023/11/03 16:43:54;;;;;;;2.85;2.22;;;19.00;59.20;;;;;;6193097;23;20154;-86
2023/11/03 16:46:24;;;;;;;2.70;2.42;;;19.10;59.20;;;;;;6192014;23;20152;-86
2023/11/03 16:48:54;;;;;;;2.38;2.17;;;19.10;59.20;;;;;;6140883;23;20219;-88
2023/11/03 16:51:20;;;;;;;2.38;2.17;;;19.10;59.20;;;;;;6165293;23;20656;-87
2023/11/03 16:53:46;;;;;;;2.78;2.00;;;19.10;59.20;;;;;;6192410;23;20609;-89
2023/11/03 16:56:12;;;;;;;3.42;2.22;;;19.10;59.30;;;;;;6166206;23;20138;-89
2023/11/03 16:58:39;;;;;;;2.83;2.10;;;19.10;59.30;;;;;;6189956;23;20138;-86
2023/11/03 17:01:06;;;;;;;2.80;2.28;;;19.10;59.30;;;;;;6219764;23;20164;-87
2023/11/03 17:03:32;;;;;;;2.30;1.88;;;19.10;59.40;;;;;;6219557;23;20276;-87
2023/11/03 17:06:00;;;;;;;3.13;2.30;;;19.10;59.30;;;;;;6170855;23;20477;-88
2023/11/03 17:08:28;;;;;;;2.78;1.90;;;19.20;59.50;;;;;;6168035;23;20142;-88
2023/11/03 17:10:55;;;;;;;2.40;2.20;;;19.20;59.50;;;;;;6193371;23;20485;-88
2023/11/03 17:13:26;;;;;;;2.40;2.20;;;19.10;59.50;;;;;;6169403;23;20585;-88
2023/11/03 17:16:43;;;;;;;2.28;2.08;;;19.20;59.60;;;;;;6171353;23;20177;-88
2023/11/03 17:19:10;;;;;;;2.15;1.95;;;19.10;59.60;;;;;;6072023;23;20153;-88
2023/11/03 17:21:36;;;;;;;2.55;2.13;;;19.10;59.60;;;;;;6099239;23;20179;-88
2023/11/03 17:24:08;;;;;;;4.05;2.30;;;19.10;59.60;;;;;;6027647;23;20648;-88
2023/11/03 17:26:41;;;;;;;2.97;2.00;;;19.20;59.80;;;;;;6016948;23;20558;-88
2023/11/03 19:02:20;;;;;;;1.75;1.63;;;19.20;60.00;;;;;;6223888;22;20597;-87
2023/11/03 19:04:51;;;;;;;2.10;1.80;;;19.20;60.00;;;;;;6216511;23;20146;-86
2023/11/03 19:07:17;;;;;;;2.10;1.90;;;19.20;60.00;;;;;;6216757;23;20137;-87
2023/11/03 19:09:53;;;;;;;2.08;1.80;;;19.20;60.00;;;;;;6217000;23;20167;-87
2023/11/03 19:12:24;;;;;;;2.08;1.88;;;19.20;60.00;;;;;;6142834;23;20267;-87
2023/11/03 19:14:57;;;;;;;2.15;1.95;;;19.30;60.10;;;;;;6219027;23;20601;-87
2023/11/03 19:17:39;;;;;;;2.00;1.80;;;19.20;59.90;;;;;;6162746;23;20544;-88
2023/11/03 19:20:10;;;;;;;3.00;2.03;;;19.20;60.00;;;;;;6157768;23;20151;-87
2023/11/03 19:22:37;;;;;;;1.80;1.70;;;19.10;60.00;;;;;;6134185;23;20148;-88
2023/11/03 19:25:16;;;;;;;;;;;;;;;;;;;;;
2023/11/03 19:27:51;;;;;;;2.03;1.75;;;19.20;60.10;;;;;;6097817;23;20261;-88
2023/11/03 19:30:33;;;;;;;2.05;1.85;;;19.20;60.10;;;;;;6100807;23;20186;-88
2023/11/03 19:33:03;;;;;;;2.10;1.90;;;19.20;60.10;;;;;;6095770;23;20249;-88
2023/11/03 19:35:43;;;;;;;1.80;1.70;;;19.20;60.10;;;;;;6043634;23;20149;-87
2023/11/03 19:38:12;;;;;;;3.75;1.88;;;19.20;60.20;;;;;;6043987;23;20177;-89
2023/11/03 19:40:45;;;;;;;2.17;1.98;;;19.20;60.10;;;;;;6014709;23;20181;-88
2023/11/03 23:04:54;;;;;;;2.67;2.10;;;18.60;62.20;;;;;;6249904;22;20266;-88